createdAt,value
2018-08-30T00:00:26.924Z,10.70
2018-08-30T00:02:54.892Z,10.77
2018-08-30T00:05:22.796Z,10.93
2018-08-30T00:07:50.694Z,10.13
2018-08-30T00:10:18.565Z,10.83
2018-08-30T00:12:46.453Z,11.13
2018-08-30T00:15:14.405Z,11.40
2018-08-30T00:17:42.261Z,10.70
2018-08-30T00:20:11.153Z,11.30
2018-08-30T00:22:39.138Z,11.13
2018-08-30T00:25:07.044Z,11.70
2018-08-30T00:27:34.990Z,10.63
2018-08-30T00:30:03.857Z,11.17
2018-08-30T00:32:31.747Z,10.40
2018-08-30T00:34:59.722Z,10.17
2018-08-30T00:37:27.652Z,11.00
2018-08-30T00:39:55.573Z,11.10
2018-08-30T00:42:23.481Z,10.27
2018-08-30T00:44:51.447Z,9.87
2018-08-30T00:47:20.244Z,10.27
2018-08-30T00:49:48.217Z,10.70
2018-08-30T00:52:16.211Z,10.90
2018-08-30T00:54:44.108Z,11.37
2018-08-30T00:57:12.006Z,11.00
2018-08-30T00:59:39.937Z,10.50
2018-08-30T01:02:07.959Z,12.00
2018-08-30T01:05:39.248Z,11.43
2018-08-30T01:08:08.134Z,10.70
2018-08-30T01:10:36.093Z,11.20
2018-08-30T01:13:04.067Z,11.33
2018-08-30T01:15:32.049Z,11.93
2018-08-30T01:20:28.030Z,10.75
2018-08-30T01:22:55.921Z,11.10
2018-08-30T01:30:18.439Z,11.03
2018-08-30T01:32:46.399Z,11.50
2018-08-30T01:35:14.387Z,12.17
2018-08-30T01:37:42.192Z,11.67
2018-08-30T01:40:10.197Z,11.33
2018-08-30T01:42:38.191Z,11.60
2018-08-30T01:45:06.161Z,11.97
2018-08-30T01:47:34.101Z,11.27
2018-08-30T01:50:02.041Z,11.17
2018-08-30T01:52:29.894Z,11.20
2018-08-30T01:54:57.822Z,11.70
2018-08-30T01:57:25.741Z,11.53
2018-08-30T01:59:53.609Z,11.90
2018-08-30T02:02:21.530Z,11.40
2018-08-30T02:04:49.493Z,11.13
2018-08-30T02:07:17.420Z,11.50
2018-08-30T02:09:45.281Z,11.33
2018-08-30T02:12:13.166Z,11.23
2018-08-30T02:14:41.117Z,11.47
2018-08-30T02:17:08.940Z,11.30
2018-08-30T02:19:36.873Z,11.70
2018-08-30T02:22:04.889Z,12.20
2018-08-30T02:24:32.848Z,11.43
2018-08-30T02:27:00.785Z,11.73
2018-08-30T02:29:29.637Z,11.70
2018-08-30T02:31:57.529Z,11.33
2018-08-30T02:34:25.415Z,12.10
2018-08-30T02:36:53.366Z,11.97
2018-08-30T02:39:21.184Z,12.57
2018-08-30T02:41:49.126Z,11.73
2018-08-30T02:44:17.050Z,12.20
2018-08-30T02:46:44.977Z,13.17
2018-08-30T02:49:12.894Z,11.83
2018-08-30T02:51:40.798Z,11.10
2018-08-30T02:54:08.786Z,11.20
2018-08-30T02:56:36.701Z,11.37
2018-08-30T02:59:04.601Z,11.60
2018-08-30T03:01:32.525Z,11.27
2018-08-30T03:04:00.401Z,11.93
2018-08-30T03:06:28.236Z,12.87
2018-08-30T03:08:56.179Z,12.43
2018-08-30T03:11:24.097Z,12.33
2018-08-30T03:13:51.989Z,12.27
2018-08-30T03:16:19.862Z,11.90
2018-08-30T03:18:47.827Z,12.10
2018-08-30T03:21:15.832Z,12.57
2018-08-30T03:23:43.753Z,11.70
2018-08-30T03:26:11.660Z,11.23
2018-08-30T03:28:39.545Z,12.77
2018-08-30T03:31:07.550Z,11.40
2018-08-30T03:33:35.467Z,12.20
2018-08-30T03:36:03.365Z,11.73
2018-08-30T03:38:31.240Z,12.20
2018-08-30T03:40:59.076Z,12.67
2018-08-30T03:43:26.960Z,11.60
2018-08-30T03:45:54.911Z,11.87
2018-08-30T03:48:22.825Z,12.53
2018-08-30T03:50:50.714Z,13.17
2018-08-30T03:53:18.633Z,12.20
2018-08-30T03:55:46.530Z,11.40
2018-08-30T04:03:08.644Z,12.40
2018-08-30T04:05:36.717Z,11.65
2018-08-30T04:08:04.887Z,12.10
2018-08-30T04:10:32.753Z,13.43
2018-08-30T04:13:00.650Z,12.50
2018-08-30T04:15:28.516Z,12.50
2018-08-30T04:17:56.454Z,12.80
2018-08-30T04:20:24.531Z,12.90
2018-08-30T04:22:52.461Z,12.95
2018-08-30T04:25:20.381Z,12.45
2018-08-30T04:27:48.437Z,13.00
2018-08-30T04:30:16.324Z,12.93
2018-08-30T04:32:44.201Z,13.60
2018-08-30T04:35:12.129Z,12.67
2018-08-30T04:37:40.067Z,12.87
2018-08-30T04:40:08.050Z,12.27
2018-08-30T04:42:36.105Z,13.20
2018-08-30T04:45:05.294Z,11.67
2018-08-30T04:47:33.246Z,12.87
2018-08-30T04:50:02.172Z,13.20
2018-08-30T04:52:30.314Z,14.40
2018-08-30T04:54:58.167Z,13.50
2018-08-30T04:57:26.077Z,12.60
2018-08-30T04:59:53.975Z,13.20
2018-08-30T05:02:21.873Z,14.10
2018-08-30T05:04:49.748Z,13.10
2018-08-30T05:07:17.588Z,12.80
2018-08-30T05:09:45.570Z,14.67
2018-08-30T05:12:13.583Z,13.87
2018-08-30T05:14:41.501Z,13.90
2018-08-30T05:17:09.422Z,14.20
2018-08-30T05:19:37.495Z,14.43
2018-08-30T05:22:05.425Z,14.23
2018-08-30T05:24:33.291Z,13.30
2018-08-30T05:27:01.197Z,13.83
2018-08-30T05:29:29.028Z,13.03
2018-08-30T05:31:56.899Z,14.10
2018-08-30T05:34:24.748Z,12.93
2018-08-30T05:36:52.647Z,13.60
2018-08-30T05:39:20.521Z,13.70
2018-08-30T05:41:48.454Z,13.57
2018-08-30T05:44:16.434Z,13.60
2018-08-30T05:46:44.334Z,13.90
2018-08-30T05:49:12.499Z,12.60
2018-08-30T05:51:40.366Z,13.67
2018-08-30T05:54:08.268Z,13.03
2018-08-30T05:56:36.228Z,13.70
2018-08-30T05:59:04.187Z,14.03
2018-08-30T06:01:32.165Z,13.50
2018-08-30T06:04:00.118Z,13.60
2018-08-30T06:06:28.108Z,14.00
2018-08-30T06:08:56.000Z,13.33
2018-08-30T06:11:23.893Z,14.30
2018-08-30T06:13:51.811Z,14.40
2018-08-30T06:16:19.762Z,15.10
2018-08-30T06:18:47.708Z,14.50
2018-08-30T06:21:15.603Z,14.53
2018-08-30T06:23:43.558Z,13.90
2018-08-30T06:26:11.512Z,14.43
2018-08-30T06:28:40.348Z,14.07
2018-08-30T06:31:08.278Z,14.00
2018-08-30T06:33:36.185Z,14.37
2018-08-30T06:36:04.114Z,14.90
2018-08-30T06:38:33.010Z,14.13
2018-08-30T06:41:00.865Z,15.20
2018-08-30T06:43:28.771Z,13.97
2018-08-30T06:45:56.688Z,14.03
2018-08-30T06:48:24.594Z,14.67
2018-08-30T06:50:52.575Z,14.73
2018-08-30T06:53:20.517Z,14.80
2018-08-30T06:55:48.418Z,14.47
2018-08-30T06:58:16.344Z,15.07
2018-08-30T07:00:44.165Z,15.13
2018-08-30T07:03:12.056Z,15.30
2018-08-30T07:05:39.901Z,15.03
2018-08-30T07:08:07.925Z,14.77
2018-08-30T07:10:35.789Z,15.53
2018-08-30T07:13:03.672Z,15.60
2018-08-30T07:15:31.584Z,14.63
2018-08-30T07:17:59.457Z,15.53
2018-08-30T07:20:27.363Z,15.53
2018-08-30T07:22:56.258Z,14.40
2018-08-30T07:25:24.220Z,15.03
2018-08-30T07:27:52.106Z,15.77
2018-08-30T07:30:19.996Z,15.53
2018-08-30T07:32:47.945Z,16.60
2018-08-30T07:35:15.900Z,15.87
2018-08-30T07:37:43.898Z,16.60
2018-08-30T07:40:11.792Z,15.57
2018-08-30T07:42:39.727Z,16.53
2018-08-30T07:45:07.653Z,15.97
2018-08-30T07:47:35.563Z,16.77
2018-08-30T07:50:03.534Z,16.87
2018-08-30T07:52:31.400Z,17.10
2018-08-30T07:54:59.338Z,16.70
2018-08-30T07:57:27.271Z,16.33
2018-08-30T07:59:55.205Z,18.20
2018-08-30T08:02:23.125Z,16.97
2018-08-30T08:04:51.031Z,17.80
2018-08-30T08:07:18.997Z,19.37
2018-08-30T08:09:46.889Z,19.10
2018-08-30T08:12:14.842Z,21.03
2018-08-30T08:14:42.749Z,18.73
2018-08-30T08:17:10.673Z,18.47
2018-08-30T08:19:38.585Z,19.70
2018-08-30T08:22:06.557Z,19.90
2018-08-30T08:24:34.463Z,19.40
2018-08-30T08:27:02.417Z,19.30
2018-08-30T08:29:30.332Z,20.97
2018-08-30T08:31:58.253Z,21.17
2018-08-30T08:34:26.122Z,19.87
2018-08-30T08:36:53.985Z,20.50
2018-08-30T08:39:21.947Z,20.10
2018-08-30T08:41:49.817Z,20.70
2018-08-30T08:44:17.726Z,20.40
2018-08-30T08:46:45.629Z,20.97
2018-08-30T08:49:13.547Z,21.47
2018-08-30T08:51:41.530Z,21.23
2018-08-30T08:54:09.396Z,20.30
2018-08-30T08:56:37.338Z,21.00
2018-08-30T08:59:05.336Z,20.37
2018-08-30T09:01:33.326Z,19.30
2018-08-30T09:04:01.217Z,20.60
2018-08-30T09:06:29.217Z,21.93
2018-08-30T09:08:57.113Z,21.00
2018-08-30T09:11:25.088Z,21.80
2018-08-30T09:13:53.002Z,22.20
2018-08-30T09:16:20.957Z,23.33
2018-08-30T09:18:48.841Z,22.70
2018-08-30T09:21:16.723Z,23.07
2018-08-30T09:23:45.536Z,25.10
2018-08-30T09:26:13.470Z,24.80
2018-08-30T09:28:41.337Z,25.17
2018-08-30T09:31:09.350Z,26.23
2018-08-30T09:33:37.302Z,27.73
2018-08-30T09:36:05.342Z,26.90
2018-08-30T09:38:33.201Z,27.10
2018-08-30T09:41:01.114Z,27.30
2018-08-30T09:43:29.045Z,25.17
2018-08-30T09:45:57.905Z,27.23
2018-08-30T09:48:25.796Z,28.77
2018-08-30T09:50:53.666Z,27.77
2018-08-30T09:53:21.549Z,28.53
2018-08-30T09:55:49.592Z,31.10
2018-08-30T09:58:17.459Z,32.57
2018-08-30T10:00:51.850Z,31.43
2018-08-30T10:03:19.785Z,32.30
2018-08-30T10:05:48.652Z,30.90
2018-08-30T10:08:16.520Z,30.63
2018-08-30T10:10:44.364Z,32.70
2018-08-30T10:13:12.260Z,31.80
2018-08-30T10:15:40.228Z,32.90
2018-08-30T10:18:08.070Z,31.80
2018-08-30T10:20:35.944Z,31.73
2018-08-30T10:23:03.828Z,31.57
2018-08-30T10:25:31.829Z,33.37
2018-08-30T10:27:59.759Z,32.60
2018-08-30T10:30:27.597Z,32.07
2018-08-30T10:32:55.508Z,33.80
2018-08-30T10:35:23.726Z,32.93
2018-08-30T10:37:51.616Z,33.57
2018-08-30T10:40:19.509Z,32.90
2018-08-30T10:42:47.376Z,32.50
2018-08-30T10:45:15.345Z,32.17
2018-08-30T10:47:43.192Z,32.30
2018-08-30T10:50:11.121Z,31.87
2018-08-30T10:52:39.044Z,29.93
2018-08-30T10:58:38.185Z,28.27
2018-08-30T11:01:06.121Z,29.00
2018-08-30T11:03:33.986Z,29.43
2018-08-30T11:06:01.934Z,28.33
2018-08-30T11:08:29.789Z,28.30
2018-08-30T11:10:57.725Z,27.60
2018-08-30T11:13:25.674Z,29.10
2018-08-30T11:15:53.521Z,28.33
2018-08-30T11:18:21.367Z,27.67
2018-08-30T11:20:49.260Z,27.80
2018-08-30T11:23:17.138Z,30.20
2018-08-30T11:25:45.082Z,29.57
2018-08-30T11:28:12.974Z,30.53
2018-08-30T11:30:40.820Z,30.87
2018-08-30T11:33:08.775Z,32.83
2018-08-30T11:35:36.662Z,29.40
2018-08-30T11:38:04.606Z,30.67
2018-08-30T11:40:32.501Z,28.90
2018-08-30T11:43:00.369Z,27.63
2018-08-30T11:45:28.253Z,27.90
2018-08-30T11:47:56.117Z,24.10
2018-08-30T11:50:24.039Z,22.17
2018-08-30T11:52:51.972Z,23.30
2018-08-30T11:55:19.864Z,20.53
2018-08-30T11:57:47.760Z,18.90
2018-08-30T12:00:15.637Z,19.20
2018-08-30T12:02:43.837Z,17.70
2018-08-30T12:05:11.656Z,16.47
2018-08-30T12:07:39.596Z,14.20
2018-08-30T12:10:07.570Z,11.50
2018-08-30T12:12:36.393Z,10.67
2018-08-30T12:15:04.288Z,10.43
2018-08-30T12:17:33.138Z,8.53
2018-08-30T12:20:01.053Z,7.73
2018-08-30T12:22:28.908Z,8.20
2018-08-30T12:24:56.753Z,8.20
2018-08-30T12:27:24.678Z,8.67
2018-08-30T12:29:52.604Z,8.90
2018-08-30T12:32:20.522Z,9.80
2018-08-30T12:34:48.475Z,9.50
2018-08-30T12:37:16.349Z,10.23
2018-08-30T12:39:44.390Z,11.20
2018-08-30T12:42:12.318Z,12.70
2018-08-30T12:44:40.190Z,12.13
2018-08-30T12:47:08.157Z,11.93
2018-08-30T12:49:36.061Z,12.47
2018-08-30T12:52:04.103Z,12.03
2018-08-30T12:54:32.014Z,12.47
2018-08-30T12:57:00.023Z,13.30
2018-08-30T12:59:33.363Z,14.37
2018-08-30T13:02:01.323Z,15.50
2018-08-30T13:04:29.289Z,15.40
2018-08-30T13:06:57.717Z,15.27
2018-08-30T13:09:26.921Z,14.80
2018-08-30T13:11:56.444Z,14.30
2018-08-30T13:14:24.163Z,14.20
2018-08-30T13:16:52.115Z,13.90
2018-08-30T13:19:19.889Z,14.63
2018-08-30T13:21:48.432Z,13.00
2018-08-30T13:24:16.629Z,13.87
2018-08-30T13:26:44.679Z,13.13
2018-08-30T13:29:12.672Z,13.13
2018-08-30T13:31:41.065Z,12.30
2018-08-30T13:34:08.982Z,11.70
2018-08-30T13:36:36.905Z,11.50
2018-08-30T13:39:06.805Z,11.90
2018-08-30T13:41:34.775Z,11.87
2018-08-30T13:44:02.803Z,11.97
2018-08-30T13:46:30.562Z,12.10
2018-08-30T13:48:58.446Z,11.80
2018-08-30T13:51:26.407Z,11.60
2018-08-30T13:53:54.231Z,11.00
2018-08-30T13:56:22.384Z,12.17
2018-08-30T13:58:50.562Z,11.23
2018-08-30T14:01:18.498Z,11.40
2018-08-30T14:03:46.283Z,11.50
2018-08-30T14:06:14.125Z,11.43
2018-08-30T14:08:42.027Z,11.90
2018-08-30T14:11:09.940Z,11.40
2018-08-30T14:13:37.857Z,11.77
2018-08-30T14:16:05.590Z,11.60
2018-08-30T14:18:33.515Z,10.90
2018-08-30T14:21:01.459Z,11.33
2018-08-30T14:23:29.374Z,11.40
2018-08-30T14:25:57.381Z,12.47
2018-08-30T14:28:25.257Z,11.47
2018-08-30T14:30:53.151Z,11.80
2018-08-30T14:33:21.135Z,11.93
2018-08-30T14:35:49.130Z,11.73
2018-08-30T14:38:17.021Z,11.30
2018-08-30T14:40:44.933Z,11.60
2018-08-30T14:43:13.809Z,11.90
2018-08-30T14:45:41.821Z,10.87
2018-08-30T14:48:10.101Z,11.87
2018-08-30T14:50:37.623Z,11.13
2018-08-30T14:53:05.564Z,12.27
2018-08-30T14:55:33.522Z,11.37
2018-08-30T14:58:01.418Z,11.73
2018-08-30T15:00:30.396Z,12.00
2018-08-30T15:02:58.207Z,11.07
2018-08-30T15:05:27.531Z,12.07
2018-08-30T15:07:55.316Z,11.90
2018-08-30T15:10:23.193Z,12.37
2018-08-30T15:12:51.107Z,11.67
2018-08-30T15:15:19.090Z,11.87
2018-08-30T15:17:47.031Z,12.17
2018-08-30T15:20:15.148Z,11.60
2018-08-30T15:22:42.973Z,11.10
2018-08-30T15:25:10.938Z,11.07
2018-08-30T15:27:39.002Z,11.50
2018-08-30T15:30:06.978Z,11.50
2018-08-30T15:32:34.784Z,11.17
2018-08-30T15:35:02.688Z,12.13
2018-08-30T15:37:30.546Z,11.50
2018-08-30T15:39:59.447Z,11.80
2018-08-30T15:42:27.496Z,11.70
2018-08-30T15:44:55.336Z,11.57
2018-08-30T15:47:23.399Z,11.70
2018-08-30T15:49:51.188Z,10.83
2018-08-30T15:52:19.124Z,11.27
2018-08-30T15:54:47.050Z,11.30
2018-08-30T15:57:15.078Z,11.83
2018-08-30T15:59:43.924Z,11.40
2018-08-30T16:02:11.864Z,11.03
2018-08-30T16:04:39.783Z,11.80
2018-08-30T16:07:07.730Z,11.90
2018-08-30T16:09:35.673Z,10.83
2018-08-30T16:12:04.615Z,11.30
2018-08-30T16:14:32.500Z,11.97
2018-08-30T16:17:00.462Z,11.17
2018-08-30T16:19:28.407Z,12.03
2018-08-30T16:21:56.369Z,12.77
2018-08-30T16:24:24.365Z,12.60
2018-08-30T16:26:52.197Z,12.67
2018-08-30T16:29:20.178Z,12.10
2018-08-30T16:31:48.014Z,12.40
2018-08-30T16:34:16.949Z,12.37
2018-08-30T16:36:44.939Z,11.37
2018-08-30T16:39:12.920Z,10.80
2018-08-30T16:41:41.054Z,12.00
2018-08-30T16:44:09.974Z,10.90
2018-08-30T16:46:37.907Z,10.03
2018-08-30T16:49:06.032Z,11.13
2018-08-30T16:51:33.910Z,11.00
2018-08-30T16:54:01.757Z,10.70
2018-08-30T16:56:29.678Z,10.40
2018-08-30T16:58:57.684Z,11.30
2018-08-30T17:01:25.573Z,10.80
2018-08-30T17:03:53.480Z,10.60
2018-08-30T17:06:21.426Z,10.80
2018-08-30T17:08:49.336Z,10.90
2018-08-30T17:11:17.311Z,11.70
2018-08-30T17:13:45.221Z,11.07
2018-08-30T17:16:13.134Z,11.73
2018-08-30T17:18:41.547Z,10.40
2018-08-30T17:21:09.444Z,10.60
2018-08-30T17:23:37.291Z,10.57
2018-08-30T17:26:05.299Z,10.87
2018-08-30T17:28:33.309Z,10.13
2018-08-30T17:31:01.327Z,9.60
2018-08-30T17:33:29.224Z,9.97
2018-08-30T17:35:57.198Z,9.43
2018-08-30T17:38:25.116Z,8.43
2018-08-30T17:40:53.039Z,8.30
2018-08-30T17:43:20.969Z,8.70
2018-08-30T17:45:48.849Z,8.43
2018-08-30T17:48:17.749Z,9.10
2018-08-30T17:50:45.693Z,9.97
2018-08-30T17:53:13.741Z,11.67
2018-08-30T17:55:41.655Z,12.73
2018-08-30T17:58:09.545Z,14.13
2018-08-30T18:00:38.468Z,17.10
2018-08-30T18:03:06.351Z,17.37
2018-08-30T18:05:34.261Z,16.57
2018-08-30T18:08:02.201Z,19.07
2018-08-30T18:10:30.165Z,18.33
2018-08-30T18:12:58.049Z,19.57
2018-08-30T18:15:26.021Z,20.73
2018-08-30T18:17:54.007Z,19.07
2018-08-30T18:20:21.888Z,21.60
2018-08-30T18:22:50.878Z,19.00
2018-08-30T18:25:18.739Z,19.27
2018-08-30T18:27:46.652Z,18.50
2018-08-30T18:30:14.601Z,18.80
2018-08-30T18:32:42.497Z,18.13
2018-08-30T18:35:10.541Z,16.87
2018-08-30T18:37:38.837Z,16.70
2018-08-30T18:40:07.145Z,17.50
2018-08-30T18:42:35.126Z,17.20
2018-08-30T18:45:03.985Z,16.33
2018-08-30T18:47:31.849Z,15.90
2018-08-30T18:49:59.700Z,17.00
2018-08-30T18:52:27.697Z,15.20
2018-08-30T18:54:55.670Z,16.47
2018-08-30T18:57:23.555Z,16.30
2018-08-30T18:59:51.468Z,18.27
2018-08-30T19:02:19.344Z,16.20
2018-08-30T19:04:47.253Z,18.00
2018-08-30T19:07:15.409Z,18.27
2018-08-30T19:09:43.325Z,17.60
2018-08-30T19:12:11.217Z,17.07
2018-08-30T19:14:39.132Z,17.80
2018-08-30T19:17:12.541Z,18.97
2018-08-30T19:19:40.543Z,16.63
2018-08-30T19:22:08.433Z,17.50
2018-08-30T19:24:41.878Z,16.83
2018-08-30T19:27:09.863Z,16.60
2018-08-30T19:29:43.329Z,16.90
2018-08-30T19:32:11.228Z,16.10
2018-08-30T19:34:39.184Z,15.33
2018-08-30T19:37:07.085Z,16.23
2018-08-30T19:39:34.958Z,16.13
2018-08-30T19:42:02.832Z,14.80
2018-08-30T19:44:30.715Z,15.80
2018-08-30T19:46:58.597Z,16.03
2018-08-30T19:49:26.549Z,15.23
2018-08-30T19:51:54.402Z,14.10
2018-08-30T19:54:22.274Z,15.20
2018-08-30T19:56:50.198Z,13.90
2018-08-30T19:59:18.120Z,12.80
2018-08-30T20:01:45.944Z,13.30
2018-08-30T20:04:13.836Z,14.63
2018-08-30T20:06:41.719Z,14.23
2018-08-30T20:09:09.613Z,13.23
2018-08-30T20:11:37.495Z,13.07
2018-08-30T20:14:05.442Z,11.07
2018-08-30T20:16:33.418Z,10.50
2018-08-30T20:19:01.357Z,11.67
2018-08-30T20:21:29.286Z,10.63
2018-08-30T20:23:57.205Z,9.87
2018-08-30T20:26:25.206Z,10.10
2018-08-30T20:28:53.138Z,9.53
2018-08-30T20:31:20.993Z,11.00
2018-08-30T20:33:48.959Z,10.00
2018-08-30T20:36:16.796Z,9.90
2018-08-30T20:38:44.714Z,10.20
2018-08-30T20:41:12.774Z,9.67
2018-08-30T20:43:40.491Z,10.03
2018-08-30T20:46:08.402Z,10.17
2018-08-30T20:48:36.289Z,9.83
2018-08-30T20:51:04.261Z,10.00
2018-08-30T20:53:32.198Z,8.23
2018-08-30T20:56:00.094Z,8.60
2018-08-30T20:58:28.084Z,8.30
2018-08-30T21:00:56.077Z,7.57
2018-08-30T21:03:23.936Z,7.93
2018-08-30T21:05:52.039Z,7.97
2018-08-30T21:08:19.862Z,7.80
2018-08-30T21:10:47.790Z,7.87
2018-08-30T21:13:15.660Z,7.63
2018-08-30T21:15:43.639Z,8.27
2018-08-30T21:18:11.871Z,8.20
2018-08-30T21:20:39.720Z,8.73
2018-08-30T21:23:07.649Z,8.00
2018-08-30T21:25:35.616Z,8.67
2018-08-30T21:28:03.537Z,8.20
2018-08-30T21:30:31.447Z,8.20
2018-08-30T21:32:59.334Z,7.60
2018-08-30T21:35:27.306Z,8.30
2018-08-30T21:37:55.186Z,7.03
2018-08-30T21:40:23.141Z,6.50
2018-08-30T21:42:51.084Z,8.00
2018-08-30T21:45:19.873Z,7.03
2018-08-30T21:47:47.754Z,6.13
2018-08-30T21:50:15.677Z,6.87
2018-08-30T21:52:43.560Z,6.53
2018-08-30T21:55:11.436Z,6.40
2018-08-30T21:57:39.293Z,6.10
2018-08-30T22:00:07.291Z,6.90
2018-08-30T22:02:35.209Z,6.53
2018-08-30T22:05:03.137Z,6.20
2018-08-30T22:07:31.601Z,7.07
2018-08-30T22:09:59.503Z,6.50
2018-08-30T22:12:27.358Z,6.20
2018-08-30T22:14:55.477Z,5.83
2018-08-30T22:17:23.340Z,5.70
2018-08-30T22:19:51.212Z,5.70
2018-08-30T22:22:19.111Z,5.90
2018-08-30T22:24:47.044Z,6.17
2018-08-30T22:27:14.951Z,5.33
2018-08-30T22:29:42.870Z,5.40
2018-08-30T22:32:10.812Z,6.30
2018-08-30T22:34:38.679Z,5.00
2018-08-30T22:37:06.627Z,5.00
2018-08-30T22:39:34.541Z,4.60
2018-08-30T22:42:02.480Z,4.40
2018-08-30T22:44:30.385Z,4.60
2018-08-30T22:46:58.273Z,3.97
2018-08-30T22:49:26.258Z,4.40
2018-08-30T22:51:54.176Z,3.93
2018-08-30T22:54:22.115Z,3.83
2018-08-30T22:56:50.075Z,3.50
2018-08-30T22:59:18.029Z,3.50
2018-08-30T23:01:45.861Z,3.50
2018-08-30T23:04:13.761Z,3.80
2018-08-30T23:06:41.657Z,3.20
2018-08-30T23:09:10.694Z,3.47
2018-08-30T23:11:38.813Z,4.03
2018-08-30T23:14:06.737Z,3.53
2018-08-30T23:16:34.722Z,2.90
2018-08-30T23:19:02.900Z,2.90
2018-08-30T23:21:30.929Z,4.00
2018-08-30T23:23:58.975Z,2.63
2018-08-30T23:26:26.967Z,2.87
2018-08-30T23:28:54.928Z,3.10
2018-08-30T23:31:22.847Z,3.27
2018-08-30T23:33:50.778Z,2.80
2018-08-30T23:36:19.677Z,2.87
2018-08-30T23:38:47.741Z,2.77
2018-08-30T23:41:15.670Z,2.60
2018-08-30T23:43:43.557Z,3.00
2018-08-30T23:46:11.481Z,3.17
2018-08-30T23:48:39.403Z,3.10
2018-08-30T23:51:08.346Z,3.20
2018-08-30T23:53:36.228Z,3.10
2018-08-30T23:56:04.157Z,2.83
2018-08-30T23:58:37.780Z,3.80
